Time;durP1;ratioP1;P1;durP2;ratioP2;P2;SDS_P1;SDS_P2;PMS_P1;PMS_P2;Temp;Humidity;BMP_temperature;BMP_pressure;BME280_temperature;BME280_humidity;BME280_pressure;Samples;Min_cycle;Max_cycle;Signal;HPM_P1;HPM_P2
2024/01/23 00:00:09;;;;;;;27.43;5.40;;;8.30;86.30;;;;;;5047387;28;37710;-81
2024/01/23 00:02:35;;;;;;;30.53;6.03;;;8.30;86.80;;;;;;5045662;28;38700;-81
2024/01/23 00:05:04;;;;;;;33.23;5.73;;;8.20;84.80;;;;;;5050650;28;20553;-81
2024/01/23 00:07:31;;;;;;;35.33;5.67;;;8.20;84.30;;;;;;5047794;28;47845;-81
2024/01/23 00:09:58;;;;;;;35.27;4.83;;;8.20;88.00;;;;;;5041837;28;36365;-81
2024/01/23 00:12:26;;;;;;;28.27;4.67;;;8.20;88.00;;;;;;5034574;28;39201;-82
2024/01/23 00:14:54;;;;;;;35.00;5.07;;;8.10;89.90;;;;;;5057504;28;38664;-81
2024/01/23 00:17:21;;;;;;;33.40;5.97;;;8.00;90.30;;;;;;5061842;28;38715;-81
2024/01/23 00:19:47;;;;;;;29.23;5.13;;;8.00;90.80;;;;;;5055034;28;36361;-81
2024/01/23 00:22:14;;;;;;;32.47;5.27;;;8.00;83.90;;;;;;5034110;28;39205;-82
2024/01/23 00:24:43;;;;;;;39.00;8.03;;;8.00;80.30;;;;;;5033020;28;37489;-81
2024/01/23 00:27:10;;;;;;;30.63;4.37;;;8.00;68.00;;;;;;5032791;28;36863;-81
2024/01/23 00:29:37;;;;;;;37.87;5.90;;;8.00;63.20;;;;;;5034483;28;37456;-80
2024/01/23 00:32:05;;;;;;;32.50;5.60;;;8.00;61.80;;;;;;5035256;28;39327;-80
2024/01/23 00:34:32;;;;;;;38.30;5.60;;;8.00;61.10;;;;;;5041120;28;38887;-82
2024/01/23 00:37:02;;;;;;;33.20;5.40;;;8.00;58.20;;;;;;5035837;28;41721;-81
2024/01/23 00:39:30;;;;;;;28.07;5.33;;;8.10;52.70;;;;;;5037005;28;47556;-81
2024/01/23 00:41:57;;;;;;;37.13;5.63;;;8.10;49.70;;;;;;5037032;28;38599;-81
2024/01/23 00:44:25;;;;;;;33.30;5.43;;;8.10;47.60;;;;;;5044889;28;37408;-81
2024/01/23 00:46:52;;;;;;;34.77;5.53;;;8.10;47.20;;;;;;5030882;28;37588;-81
2024/01/23 00:49:19;;;;;;;33.83;5.23;;;8.20;48.00;;;;;;5035782;28;38558;-81
2024/01/23 00:51:47;;;;;;;40.20;6.03;;;8.20;44.00;;;;;;5046687;28;39937;-81
2024/01/23 00:54:14;;;;;;;35.37;5.37;;;8.20;41.80;;;;;;5042470;28;38381;-82
2024/01/23 00:56:42;;;;;;;26.23;4.67;;;8.20;40.10;;;;;;5054322;28;37910;-82
2024/01/23 00:59:13;;;;;;;31.53;5.43;;;8.20;40.40;;;;;;5061001;28;37604;-81
2024/01/23 01:01:40;;;;;;;32.07;5.93;;;8.10;42.90;;;;;;5044329;28;38302;-81
2024/01/23 01:04:07;;;;;;;32.53;5.17;;;8.10;43.90;;;;;;5044425;28;38681;-82
2024/01/23 01:06:33;;;;;;;30.80;4.43;;;8.10;45.20;;;;;;5035761;28;37597;-81
2024/01/23 01:09:02;;;;;;;39.30;4.60;;;8.10;44.20;;;;;;5049173;28;37338;-81
2024/01/23 01:11:30;;;;;;;34.57;5.07;;;8.20;43.20;;;;;;5043741;28;48357;-82
2024/01/23 01:13:57;;;;;;;26.27;4.87;;;8.20;42.60;;;;;;5025994;28;37969;-81
2024/01/23 01:16:26;;;;;;;36.17;5.40;;;8.20;43.30;;;;;;5042079;28;37348;-82
2024/01/23 01:18:53;;;;;;;33.20;4.83;;;8.20;47.60;;;;;;5056380;28;38004;-81
2024/01/23 01:21:21;;;;;;;32.30;5.13;;;8.20;50.20;;;;;;5052289;28;40260;-81
2024/01/23 01:23:49;;;;;;;38.50;6.40;;;8.10;56.50;;;;;;5052897;28;36086;-81
2024/01/23 01:26:16;;;;;;;35.80;5.67;;;8.00;61.00;;;;;;5051774;28;38430;-81
2024/01/23 01:28:43;;;;;;;30.63;4.43;;;8.10;59.90;;;;;;5051103;28;37152;-81
2024/01/23 01:31:10;;;;;;;36.67;5.27;;;8.10;58.90;;;;;;5052241;28;39435;-81
2024/01/23 01:33:36;;;;;;;31.63;4.57;;;8.10;57.80;;;;;;5067958;28;38838;-81
2024/01/23 01:36:07;;;;;;;24.83;4.33;;;8.00;59.50;;;;;;5046375;28;36994;-81
2024/01/23 01:38:34;;;;;;;32.80;5.23;;;8.00;63.50;;;;;;5049567;28;37764;-82
2024/01/23 01:41:00;;;;;;;33.20;4.90;;;8.00;63.30;;;;;;5038802;28;39126;-82
2024/01/23 01:43:30;;;;;;;33.17;4.57;;;8.00;60.80;;;;;;5051570;28;38890;-81
2024/01/23 01:46:07;;;;;;;27.20;5.13;;;8.00;56.70;;;;;;5048368;28;37642;-82
2024/01/23 01:48:35;;;;;;;30.03;5.00;;;8.00;57.80;;;;;;5042328;28;48142;-81
2024/01/23 01:51:03;;;;;;;28.10;4.97;;;8.00;56.30;;;;;;5045341;28;35794;-80
2024/01/23 01:53:31;;;;;;;32.40;5.00;;;7.90;55.80;;;;;;5047758;28;47666;-83
2024/01/23 01:55:59;;;;;;;25.93;4.30;;;7.90;54.70;;;;;;5038904;28;39189;-82
2024/01/23 01:58:29;;;;;;;26.40;4.97;;;7.90;55.90;;;;;;5038453;28;36821;-82
2024/01/23 02:03:31;;;;;;;29.60;5.03;;;7.90;54.50;;;;;;5224115;23;20105;-79
2024/01/23 02:05:58;;;;;;;38.93;6.43;;;7.90;54.20;;;;;;5043573;28;36902;-78
2024/01/23 02:08:24;;;;;;;30.47;4.50;;;7.80;55.50;;;;;;5028412;28;36473;-79
2024/01/23 02:10:53;;;;;;;25.43;5.30;;;7.80;55.60;;;;;;5044693;28;37760;-79
2024/01/23 02:13:19;;;;;;;33.43;4.77;;;7.70;57.60;;;;;;5054860;28;38349;-79
2024/01/23 02:15:45;;;;;;;28.90;4.90;;;7.70;58.30;;;;;;5046590;28;38546;-78
2024/01/23 02:18:11;;;;;;;29.47;4.47;;;7.70;56.70;;;;;;5029446;28;36035;-79
2024/01/23 02:20:37;;;;;;;32.50;5.17;;;7.70;53.90;;;;;;5035967;28;38635;-79
2024/01/23 02:23:04;;;;;;;29.97;4.83;;;7.80;46.80;;;;;;5043788;28;37263;-80
2024/01/23 02:25:30;;;;;;;31.97;5.40;;;7.80;44.50;;;;;;5037163;28;37368;-79
2024/01/23 02:27:58;;;;;;;34.83;6.10;;;7.80;42.60;;;;;;5055279;28;37321;-79
2024/01/23 02:30:24;;;;;;;25.93;4.60;;;7.80;41.20;;;;;;5034436;28;38728;-79
2024/01/23 02:32:50;;;;;;;32.87;4.73;;;7.70;43.40;;;;;;5053406;28;38358;-79
2024/01/23 02:35:16;;;;;;;37.70;5.50;;;7.70;38.30;;;;;;5037683;28;38322;-78
2024/01/23 02:37:45;;;;;;;27.13;4.57;;;7.70;34.80;;;;;;5036793;28;37011;-78
2024/01/23 02:40:12;;;;;;;33.43;5.20;;;7.80;32.50;;;;;;5059882;28;38486;-79
2024/01/23 02:42:38;;;;;;;37.60;5.03;;;7.70;29.80;;;;;;5038742;28;38664;-78
2024/01/23 02:45:04;;;;;;;28.60;5.83;;;7.80;26.80;;;;;;5034180;28;37113;-78
2024/01/23 02:47:30;;;;;;;25.67;4.27;;;7.80;25.10;;;;;;5037490;28;47218;-79
2024/01/23 02:49:57;;;;;;;25.03;6.27;;;7.80;24.80;;;;;;5034612;28;37551;-79
2024/01/23 02:52:31;;;;;;;28.17;5.00;;;7.70;27.30;;;;;;5051543;28;37449;-82
2024/01/23 02:55:09;;;;;;;28.67;4.97;;;7.70;29.10;;;;;;5045067;28;37461;-82
2024/01/23 02:57:47;;;;;;;28.00;4.53;;;7.70;28.10;;;;;;5035481;28;46930;-81
2024/01/23 03:00:30;;;;;;;36.47;4.90;;;7.70;27.20;;;;;;5077856;28;39606;-82
2024/01/23 03:02:56;;;;;;;36.65;7.18;;;7.70;23.20;;;;;;5050480;28;48001;-82
2024/01/23 03:05:28;;;;;;;27.87;4.63;;;7.60;27.30;;;;;;5059247;28;36885;-82
2024/01/23 03:07:55;;;;;;;32.33;5.40;;;7.50;32.10;;;;;;5047802;28;37257;-83
2024/01/23 03:10:21;;;;;;;36.70;4.87;;;7.50;31.20;;;;;;5065308;28;40990;-83
2024/01/23 03:12:47;;;;;;;36.77;5.50;;;7.50;28.90;;;;;;5040282;28;37751;-83
2024/01/23 03:15:18;;;;;;;36.03;5.37;;;7.50;24.90;;;;;;5070640;28;38015;-82
2024/01/23 03:17:47;;;;;;;27.97;4.67;;;7.50;22.10;;;;;;5063642;28;38093;-83
2024/01/23 03:20:13;;;;;;;42.77;4.57;;;7.60;21.70;;;;;;5052803;28;37719;-83
2024/01/23 03:22:39;;;;;;;29.10;5.70;;;7.50;23.70;;;;;;5054078;28;39230;-82
2024/01/23 03:25:06;;;;;;;27.70;4.20;;;7.50;22.90;;;;;;5065023;28;38847;-82
2024/01/23 03:27:32;;;;;;;31.57;4.83;;;7.50;22.60;;;;;;5036991;28;37783;-82
2024/01/23 03:29:58;;;;;;;26.57;4.87;;;7.50;20.50;;;;;;5047556;28;37880;-83
2024/01/23 03:32:26;;;;;;;31.77;4.87;;;7.50;19.30;;;;;;5050844;28;39379;-82
2024/01/23 03:34:52;;;;;;;30.93;4.77;;;7.50;21.70;;;;;;5041547;28;38567;-79
2024/01/23 03:37:18;;;;;;;34.67;5.00;;;7.50;20.00;;;;;;5028938;28;36403;-78
2024/01/23 03:39:44;;;;;;;32.93;4.97;;;7.50;17.50;;;;;;5040217;28;38873;-79
2024/01/23 03:42:10;;;;;;;35.73;5.60;;;7.50;17.50;;;;;;5024883;28;37537;-79
2024/01/23 03:44:36;;;;;;;36.63;5.97;;;7.50;17.30;;;;;;5048655;28;38002;-79
2024/01/23 03:47:03;;;;;;;35.77;6.47;;;7.50;17.90;;;;;;5036633;28;35957;-79
2024/01/23 03:49:29;;;;;;;35.60;5.63;;;7.50;16.80;;;;;;5048350;28;39655;-78
2024/01/23 03:51:55;;;;;;;23.77;3.80;;;7.50;18.70;;;;;;5060791;28;39633;-79
2024/01/23 03:54:21;;;;;;;33.73;4.77;;;7.50;20.60;;;;;;5053113;28;38344;-79
2024/01/23 03:56:47;;;;;;;30.03;4.87;;;7.40;24.60;;;;;;5068438;28;38337;-78
2024/01/23 03:59:14;;;;;;;34.43;5.10;;;7.30;31.30;;;;;;5034475;28;38811;-78
2024/01/23 04:01:40;;;;;;;35.67;4.90;;;7.40;30.60;;;;;;5050260;28;38322;-79
2024/01/23 04:04:06;;;;;;;36.43;5.97;;;7.40;31.30;;;;;;5044693;28;37564;-79
2024/01/23 04:06:32;;;;;;;28.67;4.80;;;7.40;31.70;;;;;;5055459;28;37466;-79
2024/01/23 04:08:59;;;;;;;29.60;4.23;;;7.40;31.10;;;;;;5041277;28;37735;-79
2024/01/23 04:11:29;;;;;;;30.80;5.00;;;7.40;33.00;;;;;;5040599;28;38717;-78
2024/01/23 04:13:55;;;;;;;30.37;4.97;;;7.40;30.80;;;;;;5054716;28;39128;-79
2024/01/23 04:16:21;;;;;;;28.03;4.77;;;7.40;29.30;;;;;;5054803;28;38278;-79
2024/01/23 04:18:47;;;;;;;30.77;5.90;;;7.40;29.20;;;;;;5038709;28;38831;-79
2024/01/23 04:21:16;;;;;;;36.47;5.37;;;7.40;30.50;;;;;;5038134;28;37367;-79
2024/01/23 04:23:42;;;;;;;31.83;5.80;;;7.30;36.20;;;;;;5033416;28;36841;-79
2024/01/23 04:26:09;;;;;;;26.57;4.63;;;7.30;38.50;;;;;;5031901;28;36539;-78
2024/01/23 04:28:35;;;;;;;30.67;4.90;;;7.30;44.40;;;;;;5035427;28;39635;-79
2024/01/23 04:31:02;;;;;;;32.87;4.90;;;7.40;42.50;;;;;;5015609;28;38907;-79
2024/01/23 04:33:29;;;;;;;30.43;5.47;;;7.30;45.20;;;;;;5038413;28;38047;-78
2024/01/23 04:35:55;;;;;;;36.60;5.97;;;7.30;49.90;;;;;;5047094;28;36857;-79
2024/01/23 04:38:21;;;;;;;39.03;6.67;;;7.30;52.70;;;;;;5043453;28;39394;-79
2024/01/23 04:40:47;;;;;;;31.80;5.77;;;7.30;52.70;;;;;;5029915;28;37578;-79
2024/01/23 04:43:13;;;;;;;28.40;4.70;;;7.30;51.30;;;;;;5039277;28;38682;-78
2024/01/23 04:45:40;;;;;;;28.80;4.57;;;7.30;50.50;;;;;;5020957;28;36278;-78
2024/01/23 04:48:06;;;;;;;26.83;4.43;;;7.40;49.60;;;;;;5038453;28;38901;-79
2024/01/23 04:50:32;;;;;;;26.17;4.20;;;7.40;50.20;;;;;;5046439;28;38244;-79
2024/01/23 04:52:58;;;;;;;33.00;5.53;;;7.30;54.20;;;;;;5019434;28;37751;-79
2024/01/23 04:55:24;;;;;;;36.47;5.73;;;7.30;56.50;;;;;;5028615;28;38949;-78
2024/01/23 04:57:50;;;;;;;27.63;4.80;;;7.30;54.50;;;;;;5023066;28;39272;-78
2024/01/23 05:00:17;;;;;;;34.57;5.17;;;7.30;52.30;;;;;;5038370;28;38335;-78
2024/01/23 05:02:44;;;;;;;35.33;5.37;;;7.30;56.70;;;;;;5026482;28;36921;-78
2024/01/23 05:05:10;;;;;;;42.87;6.07;;;7.20;64.10;;;;;;5069762;28;39045;-78
2024/01/23 05:07:36;;;;;;;31.20;5.20;;;7.20;68.20;;;;;;5038392;28;38723;-78
2024/01/23 05:10:04;;;;;;;32.30;4.77;;;7.20;67.10;;;;;;5043157;28;37541;-78
2024/01/23 05:12:30;;;;;;;38.97;5.40;;;7.20;71.50;;;;;;5055641;28;48382;-79
2024/01/23 05:14:57;;;;;;;26.90;4.20;;;7.20;73.40;;;;;;5061266;28;38335;-78
2024/01/23 05:17:23;;;;;;;34.10;5.67;;;7.20;73.00;;;;;;5050309;28;38886;-78
2024/01/23 05:19:49;;;;;;;33.93;5.23;;;7.20;74.40;;;;;;5046489;28;39130;-78
2024/01/23 05:22:15;;;;;;;33.60;6.57;;;7.20;74.40;;;;;;5031358;28;37826;-79
2024/01/23 05:24:41;;;;;;;46.40;6.13;;;7.20;71.10;;;;;;5024937;28;38439;-79
2024/01/23 05:27:07;;;;;;;33.73;4.60;;;7.20;70.90;;;;;;5049046;28;39046;-79
2024/01/23 05:29:33;;;;;;;33.60;5.50;;;7.20;70.60;;;;;;5041810;28;38667;-78
2024/01/23 05:32:00;;;;;;;40.37;5.47;;;7.20;73.50;;;;;;5025940;28;36880;-78
2024/01/23 05:34:26;;;;;;;32.40;5.97;;;7.10;76.60;;;;;;5031268;28;36916;-78
2024/01/23 05:36:52;;;;;;;25.77;4.63;;;7.10;75.40;;;;;;5050164;28;37976;-79
2024/01/23 05:39:19;;;;;;;29.10;5.47;;;7.10;75.40;;;;;;5041008;28;36699;-79
2024/01/23 05:41:45;;;;;;;37.07;5.37;;;7.20;73.30;;;;;;5036033;28;37493;-79
2024/01/23 05:44:11;;;;;;;37.73;6.00;;;7.20;73.10;;;;;;5039899;28;37397;-78
2024/01/23 05:46:37;;;;;;;29.57;5.10;;;7.20;75.30;;;;;;5037760;28;37873;-78
2024/01/23 05:49:03;;;;;;;30.23;5.93;;;7.10;77.30;;;;;;5054867;28;38729;-79
2024/01/23 05:51:32;;;;;;;33.50;4.67;;;7.10;78.60;;;;;;5045114;28;38807;-78
2024/01/23 05:53:59;;;;;;;34.87;5.10;;;7.20;72.40;;;;;;5011568;28;37130;-79
2024/01/23 05:56:25;;;;;;;32.90;5.57;;;7.20;73.10;;;;;;5044919;28;39894;-79
2024/01/23 05:58:51;;;;;;;35.73;6.00;;;7.20;73.40;;;;;;5054833;28;39666;-78
2024/01/23 06:01:17;;;;;;;33.93;4.93;;;7.10;73.60;;;;;;5030392;28;38775;-78
2024/01/23 06:03:43;;;;;;;32.20;5.10;;;7.10;71.30;;;;;;5034237;28;37169;-78
2024/01/23 06:06:09;;;;;;;24.50;4.03;;;7.10;66.60;;;;;;5027820;28;37943;-79
2024/01/23 06:08:35;;;;;;;30.97;4.87;;;7.10;64.60;;;;;;5032959;28;37667;-80
2024/01/23 06:11:02;;;;;;;30.53;4.50;;;7.10;70.10;;;;;;5033503;28;37638;-79
2024/01/23 06:13:28;;;;;;;30.37;4.77;;;7.10;71.70;;;;;;5044027;28;37236;-79
2024/01/23 06:15:54;;;;;;;31.87;4.33;;;7.00;75.40;;;;;;5041817;28;38629;-79
2024/01/23 06:18:20;;;;;;;38.63;5.07;;;6.90;81.10;;;;;;5011853;28;37970;-79
2024/01/23 06:20:46;;;;;;;29.40;4.83;;;6.90;88.60;;;;;;5035556;28;38719;-79
2024/01/23 06:23:15;;;;;;;27.93;4.53;;;6.90;90.80;;;;;;5037054;28;37088;-79
2024/01/23 06:25:41;;;;;;;34.03;4.90;;;6.90;90.10;;;;;;5030969;28;38323;-79
2024/01/23 06:28:08;;;;;;;37.27;6.27;;;6.90;91.60;;;;;;5008856;28;38449;-79
2024/01/23 06:30:34;;;;;;;39.70;5.67;;;6.90;91.90;;;;;;5003818;28;38652;-79
2024/01/23 06:33:01;;;;;;;29.67;4.63;;;6.80;93.10;;;;;;5014439;28;35983;-78
2024/01/23 06:35:27;;;;;;;36.47;4.63;;;6.70;94.20;;;;;;5046584;28;47685;-79
2024/01/23 06:37:53;;;;;;;31.10;5.03;;;6.70;97.50;;;;;;5016903;28;37733;-79
2024/01/23 06:40:19;;;;;;;40.57;5.67;;;6.70;99.70;;;;;;5040441;28;38188;-78
2024/01/23 06:42:45;;;;;;;32.97;4.30;;;6.60;99.90;;;;;;5026812;28;40096;-78
2024/01/23 06:45:14;;;;;;;31.37;5.07;;;6.60;99.90;;;;;;5042880;28;38365;-78
2024/01/23 06:47:40;;;;;;;44.63;8.10;;;6.60;99.90;;;;;;5038826;28;39163;-78
2024/01/23 06:50:07;;;;;;;43.07;6.17;;;6.50;99.90;;;;;;5029343;28;36863;-79
2024/01/23 06:52:33;;;;;;;32.83;5.20;;;6.60;99.90;;;;;;5029027;28;39985;-79
2024/01/23 06:55:00;;;;;;;39.27;5.50;;;6.50;99.90;;;;;;5032763;28;38503;-79
2024/01/23 06:57:26;;;;;;;39.10;7.37;;;6.50;99.90;;;;;;5036320;28;36681;-79
2024/01/23 06:59:52;;;;;;;35.97;5.30;;;6.40;99.90;;;;;;5037305;28;37759;-79
2024/01/23 07:02:19;;;;;;;32.87;5.20;;;6.40;99.90;;;;;;5042092;28;37060;-78
2024/01/23 07:04:45;;;;;;;35.03;5.23;;;6.40;99.90;;;;;;5041855;28;38774;-80
2024/01/23 07:07:22;;;;;;;41.40;5.50;;;6.30;99.90;;;;;;5017320;28;38070;-79
2024/01/23 07:09:52;;;;;;;37.47;5.13;;;6.30;99.90;;;;;;5040555;28;40718;-81
2024/01/23 07:12:19;;;;;;;32.50;5.00;;;6.20;99.90;;;;;;5023116;28;36538;-80
2024/01/23 07:14:45;;;;;;;36.00;6.03;;;6.20;99.90;;;;;;5036616;28;38330;-80
2024/01/23 07:17:11;;;;;;;37.40;4.90;;;6.10;99.90;;;;;;5011994;28;39958;-80
2024/01/23 07:19:44;;;;;;;36.90;5.50;;;6.00;99.90;;;;;;5038523;28;37801;-79
2024/01/23 07:22:10;;;;;;;33.45;5.43;;;5.90;99.90;;;;;;5030897;28;38492;-80
2024/01/23 07:24:36;;;;;;;34.60;5.07;;;5.80;99.90;;;;;;5052227;28;39636;-80
2024/01/23 07:27:03;;;;;;;40.23;5.40;;;5.70;99.90;;;;;;5054459;28;38395;-80
2024/01/23 07:29:30;;;;;;;38.23;5.20;;;5.60;99.90;;;;;;5058972;28;37625;-79
2024/01/23 07:31:57;;;;;;;43.57;5.97;;;5.50;99.90;;;;;;5027178;28;36617;-79
2024/01/23 07:34:23;;;;;;;32.77;5.00;;;5.50;99.90;;;;;;5028789;28;39420;-79
2024/01/23 07:36:49;;;;;;;34.30;4.60;;;5.50;99.90;;;;;;5044692;28;39154;-80
2024/01/23 07:39:15;;;;;;;36.50;5.60;;;5.40;99.90;;;;;;5056755;28;38219;-79
2024/01/23 07:41:43;;;;;;;34.70;5.37;;;5.40;99.90;;;;;;5037770;28;38146;-79
2024/01/23 07:44:09;;;;;;;39.40;6.00;;;5.30;99.90;;;;;;5064767;28;38381;-78
2024/01/23 07:46:36;;;;;;;52.03;6.07;;;5.30;99.90;;;;;;5039013;28;38845;-80
2024/01/23 07:49:02;;;;;;;34.43;5.10;;;5.20;99.90;;;;;;5031698;28;38293;-80
2024/01/23 07:51:29;;;;;;;36.23;5.53;;;5.10;99.90;;;;;;5034986;28;36090;-79
2024/01/23 07:53:55;;;;;;;48.43;6.60;;;5.20;99.90;;;;;;5029708;28;39388;-80
2024/01/23 07:56:21;;;;;;;29.73;6.87;;;5.20;99.90;;;;;;5043075;28;39480;-79
2024/01/23 07:58:48;;;;;;;48.97;7.10;;;5.20;99.90;;;;;;5041919;28;37015;-80
2024/01/23 08:01:14;;;;;;;46.97;7.80;;;5.20;99.90;;;;;;5043154;28;37779;-79
2024/01/23 08:03:41;;;;;;;50.47;8.23;;;5.20;99.90;;;;;;5046238;28;38221;-80
2024/01/23 08:06:07;;;;;;;44.97;6.17;;;5.30;99.90;;;;;;5072089;28;38428;-79
2024/01/23 08:08:34;;;;;;;41.00;6.30;;;5.40;99.90;;;;;;5046042;28;39513;-79
2024/01/23 08:11:00;;;;;;;40.40;6.60;;;5.40;99.90;;;;;;5042400;28;36351;-79
2024/01/23 08:13:26;;;;;;;42.50;5.37;;;5.50;99.90;;;;;;5036776;28;37927;-79
2024/01/23 08:15:53;;;;;;;38.83;6.53;;;5.50;99.90;;;;;;5032456;28;37690;-79
2024/01/23 08:18:19;;;;;;;35.90;5.47;;;5.50;99.90;;;;;;5059364;28;37225;-79
2024/01/23 08:20:45;;;;;;;37.07;6.20;;;5.60;99.90;;;;;;5039102;28;36731;-79
2024/01/23 08:23:11;;;;;;;45.07;6.20;;;5.60;99.90;;;;;;5046311;28;37816;-79
2024/01/23 08:25:37;;;;;;;38.13;5.67;;;5.70;99.90;;;;;;5050222;28;38242;-80
2024/01/23 08:28:04;;;;;;;49.43;6.27;;;5.70;99.90;;;;;;5031570;28;37363;-79
2024/01/23 08:30:30;;;;;;;47.03;6.93;;;5.80;99.90;;;;;;5047888;28;35714;-80
2024/01/23 08:32:56;;;;;;;49.03;6.97;;;5.80;99.90;;;;;;5038797;28;38955;-79
2024/01/23 08:35:23;;;;;;;42.87;6.77;;;5.80;99.90;;;;;;5040808;28;37162;-78
2024/01/23 08:37:49;;;;;;;36.23;5.67;;;5.80;99.90;;;;;;5036386;28;37133;-79
2024/01/23 08:40:16;;;;;;;39.17;5.60;;;5.80;99.90;;;;;;5019924;28;35970;-79
2024/01/23 08:42:42;;;;;;;49.50;6.00;;;5.80;99.90;;;;;;5031438;28;40162;-81
2024/01/23 08:45:08;;;;;;;41.07;5.73;;;5.80;99.90;;;;;;5024273;28;39269;-79
2024/01/23 08:47:35;;;;;;;33.33;5.80;;;5.80;99.90;;;;;;5039215;28;36925;-79
2024/01/23 08:50:01;;;;;;;42.70;5.80;;;5.80;99.90;;;;;;5057932;28;37609;-79
2024/01/23 08:52:27;;;;;;;47.03;7.10;;;5.90;99.90;;;;;;5040566;28;39732;-81
2024/01/23 08:54:54;;;;;;;50.53;6.77;;;5.90;99.90;;;;;;5047130;28;37608;-80
2024/01/23 08:57:24;;;;;;;57.40;7.63;;;6.00;99.90;;;;;;5039597;28;39790;-81
2024/01/23 08:59:50;;;;;;;41.27;6.50;;;6.00;99.90;;;;;;5046908;28;36849;-79
2024/01/23 09:02:16;;;;;;;46.87;6.73;;;6.10;99.90;;;;;;5026432;28;38257;-79
2024/01/23 09:04:46;;;;;;;42.63;6.10;;;6.10;99.90;;;;;;5039500;28;38464;-79
2024/01/23 09:07:13;;;;;;;36.43;5.50;;;6.10;99.90;;;;;;5021942;28;38458;-79
2024/01/23 09:09:39;;;;;;;44.83;7.10;;;6.20;99.90;;;;;;5044392;28;37139;-80
2024/01/23 09:12:06;;;;;;;46.03;6.40;;;6.30;99.90;;;;;;5050797;28;40860;-80
2024/01/23 09:14:38;;;;;;;41.73;6.73;;;6.30;99.90;;;;;;5039831;28;37193;-83
2024/01/23 09:17:05;;;;;;;38.83;6.40;;;6.30;99.90;;;;;;5053489;28;39140;-83
2024/01/23 09:19:34;;;;;;;41.50;5.80;;;6.40;99.90;;;;;;5047898;28;37957;-82
2024/01/23 09:22:00;;;;;;;45.23;6.13;;;6.50;99.90;;;;;;5074996;22;40279;-83
2024/01/23 09:24:27;;;;;;;40.30;6.00;;;6.50;99.90;;;;;;5049592;28;37994;-82
2024/01/23 09:26:59;;;;;;;37.20;5.33;;;6.60;99.90;;;;;;5057735;28;37628;-82
2024/01/23 09:29:27;;;;;;;42.10;6.53;;;6.70;99.90;;;;;;5047612;28;36060;-83
2024/01/23 09:31:56;;;;;;;39.60;5.90;;;6.70;99.90;;;;;;5047091;28;40920;-82
2024/01/23 09:34:23;;;;;;;45.90;6.37;;;6.80;99.90;;;;;;5070114;28;41084;-83
2024/01/23 09:36:51;;;;;;;38.83;5.63;;;6.80;99.90;;;;;;5056903;28;37514;-83
2024/01/23 09:39:18;;;;;;;38.20;5.73;;;6.80;99.90;;;;;;5045619;28;36431;-83
2024/01/23 09:41:51;;;;;;;38.37;5.97;;;6.90;99.90;;;;;;5047587;28;38744;-83
2024/01/23 09:44:24;;;;;;;37.20;5.10;;;6.90;99.90;;;;;;5069934;28;39124;-82
2024/01/23 09:46:52;;;;;;;37.08;5.85;;;7.00;99.90;;;;;;5056065;28;36914;-82
2024/01/23 09:49:23;;;;;;;35.83;6.93;;;7.00;99.90;;;;;;5051573;28;38079;-82
2024/01/23 09:51:53;;;;;;;30.50;4.97;;;7.00;99.90;;;;;;5051313;28;38749;-82
2024/01/23 09:54:23;;;;;;;37.47;5.00;;;7.10;99.90;;;;;;5046599;28;38873;-81
2024/01/23 09:56:52;;;;;;;38.27;5.97;;;7.10;99.90;;;;;;5059963;28;37405;-82
2024/01/23 09:59:22;;;;;;;31.63;6.03;;;7.10;99.90;;;;;;5060583;28;37648;-83
2024/01/23 10:01:56;;;;;;;35.53;5.23;;;7.10;99.90;;;;;;5096444;28;39299;-81
2024/01/23 10:04:29;;;;;;;40.93;5.97;;;7.10;99.90;;;;;;5057245;28;37873;-83
2024/01/23 10:06:57;;;;;;;27.75;5.05;;;7.20;99.90;;;;;;5061371;28;37381;-82
2024/01/23 10:09:26;;;;;;;34.43;5.33;;;7.20;99.90;;;;;;5038787;28;36248;-83
2024/01/23 10:11:55;;;;;;;38.27;5.23;;;7.20;99.90;;;;;;5046918;28;38497;-82
2024/01/23 10:14:24;;;;;;;29.87;4.67;;;7.20;99.90;;;;;;5046591;28;38848;-83
2024/01/23 10:16:52;;;;;;;35.10;5.47;;;7.30;99.90;;;;;;5060945;28;38768;-82
2024/01/23 10:19:21;;;;;;;31.57;4.83;;;7.40;99.90;;;;;;5051473;28;36102;-82
2024/01/23 10:21:53;;;;;;;27.63;4.73;;;7.50;99.90;;;;;;5043105;28;38723;-81
2024/01/23 10:24:21;;;;;;;38.37;6.43;;;7.60;99.90;;;;;;5047337;28;38490;-84
2024/01/23 10:26:55;;;;;;;30.17;4.87;;;7.60;99.90;;;;;;5036444;28;37383;-84
2024/01/23 10:30:04;;;;;;;35.90;5.50;;;7.60;99.90;;;;;;5047243;28;37704;-83
2024/01/23 10:32:34;;;;;;;30.47;4.93;;;7.50;99.90;;;;;;5027616;28;39361;-83
2024/01/23 10:35:03;;;;;;;37.37;5.33;;;7.50;99.90;;;;;;5059433;28;38959;-82
2024/01/23 10:37:30;;;;;;;33.30;5.47;;;7.60;99.90;;;;;;5054025;28;47846;-82
2024/01/23 10:40:06;;;;;;;27.50;4.93;;;7.60;99.90;;;;;;5049543;28;38230;-82
2024/01/23 10:43:07;;;;;;;28.93;5.03;;;7.70;99.90;;;;;;5011448;28;38780;-83
2024/01/23 10:45:37;;;;;;;34.50;5.50;;;7.80;99.90;;;;;;5048205;28;48898;-82
2024/01/23 10:48:19;;;;;;;27.90;5.83;;;7.80;99.90;;;;;;5045336;28;39508;-82
2024/01/23 10:51:07;;;;;;;29.90;5.77;;;7.80;99.90;;;;;;5050274;28;38759;-82
2024/01/23 10:54:02;;;;;;;34.97;6.00;;;7.90;99.90;;;;;;5020431;28;50006;-83
2024/01/23 10:57:08;;;;;;;;;;;;;;;;;;;;;
2024/01/23 10:59:47;;;;;;;31.83;4.97;;;8.00;99.90;;;;;;5048221;23;49501;-80
2024/01/23 11:05:28;;;;;;;34.80;4.93;;;8.10;99.90;;;;;;5042354;28;38944;-81
2024/01/23 11:08:14;;;;;;;23.30;5.35;;;8.20;99.90;;;;;;5044759;28;39922;-82
2024/01/23 11:10:54;;;;;;;29.17;5.23;;;8.20;99.90;;;;;;5044461;28;49846;-81
2024/01/23 11:13:48;;;;;;;29.70;5.33;;;8.10;99.90;;;;;;5042582;28;39001;-82
2024/01/23 11:16:16;;;;;;;30.47;6.30;;;8.20;99.90;;;;;;5057606;28;39301;-82
2024/01/23 11:19:07;;;;;;;26.90;5.00;;;8.30;99.90;;;;;;5035447;28;37872;-82
2024/01/23 11:22:33;;;;;;;35.73;5.20;;;8.50;99.10;;;;;;5060678;22;50194;-81
2024/01/23 11:28:43;;;;;;;;;;;;;;;;;;;;;
2024/01/23 11:32:04;;;;;;;;;;;;;;;;;;;;;
2024/01/23 11:34:42;;;;;;;33.07;5.67;;;8.50;95.00;;;;;;4959885;28;48682;-82
2024/01/23 11:38:01;;;;;;;31.30;5.03;;;8.60;95.50;;;;;;5014423;28;37043;-82
2024/01/23 11:41:00;;;;;;;30.50;5.90;;;8.50;98.70;;;;;;4976880;28;49990;-80
2024/01/23 11:48:53;;;;;;;27.67;5.27;;;8.40;99.90;;;;;;5810263;23;20033;-82
2024/01/23 12:01:45;;;;;;;34.07;7.00;;;8.50;99.90;;;;;;5685755;22;20097;-81
2024/01/23 12:17:18;;;;;;;32.20;5.93;;;8.80;99.90;;;;;;4839475;22;20021;-80
2024/01/23 12:43:18;;;;;;;41.07;7.03;;;8.80;99.90;;;;;;5468765;23;19912;-84
2024/01/23 12:51:15;;;;;;;42.53;7.43;;;8.70;99.90;;;;;;5144545;23;20045;-85
2024/01/23 12:53:41;;;;;;;43.47;6.33;;;8.60;99.90;;;;;;5043466;28;48362;-82
2024/01/23 12:56:07;;;;;;;43.00;7.30;;;8.60;99.90;;;;;;5055171;28;37396;-83
2024/01/23 13:01:10;;;;;;;43.60;7.30;;;8.60;99.90;;;;;;6045184;23;20047;-83
2024/01/23 13:03:37;;;;;;;36.87;7.47;;;8.60;99.90;;;;;;5052449;28;39316;-82
2024/01/23 13:07:10;;;;;;;;;;;;;;;;;;;;;
2024/01/23 13:09:58;;;;;;;37.47;7.33;;;8.70;99.90;;;;;;4977094;28;39758;-82
2024/01/23 13:12:25;;;;;;;44.23;8.10;;;8.70;99.90;;;;;;5009708;28;37567;-83
2024/01/23 13:15:20;;;;;;;58.77;9.37;;;8.70;99.90;;;;;;4983777;28;39168;-82
2024/01/23 13:17:47;;;;;;;51.37;9.33;;;8.80;99.90;;;;;;4982063;28;47843;-83
2024/01/23 13:26:15;;;;;;;43.10;7.53;;;8.70;99.90;;;;;;4166559;26;20025;-83
2024/01/23 13:28:56;;;;;;;55.53;8.77;;;8.70;99.90;;;;;;5055005;28;38898;-83
2024/01/23 13:31:40;;;;;;;44.63;8.23;;;8.70;99.90;;;;;;5068121;28;38218;-82
2024/01/23 13:36:50;;;;;;;55.30;7.60;;;8.60;99.90;;;;;;5023724;28;20081;-81
2024/01/23 13:39:18;;;;;;;53.70;9.27;;;8.60;99.90;;;;;;4999651;28;38071;-81
2024/01/23 13:41:45;;;;;;;69.10;11.37;;;8.60;99.90;;;;;;5001233;28;36866;-81
2024/01/23 13:44:12;;;;;;;53.83;9.47;;;8.60;99.90;;;;;;5014796;28;36581;-81
2024/01/23 13:46:39;;;;;;;54.37;9.20;;;8.60;99.90;;;;;;4997350;28;38286;-81
2024/01/23 13:49:06;;;;;;;55.10;9.40;;;8.50;99.90;;;;;;4999831;28;38717;-81
2024/01/23 13:51:32;;;;;;;45.30;7.70;;;8.50;99.90;;;;;;5013677;28;38036;-81
2024/01/23 13:53:59;;;;;;;50.87;8.10;;;8.50;99.90;;;;;;5021105;28;36420;-81
2024/01/23 13:56:25;;;;;;;55.77;7.77;;;8.50;99.90;;;;;;5031211;28;39204;-81
2024/01/23 13:58:51;;;;;;;49.33;7.30;;;8.50;99.90;;;;;;5046977;28;37554;-81
2024/01/23 14:01:20;;;;;;;56.60;8.07;;;8.50;99.90;;;;;;5013545;28;37239;-81
2024/01/23 14:03:46;;;;;;;50.47;8.63;;;8.60;99.90;;;;;;5035383;28;38341;-81
2024/01/23 14:06:13;;;;;;;47.50;8.30;;;8.60;99.90;;;;;;5017250;28;39055;-81
2024/01/23 14:08:40;;;;;;;31.87;6.70;;;8.60;99.90;;;;;;5011091;28;38801;-81
2024/01/23 14:11:07;;;;;;;45.97;7.70;;;8.60;99.90;;;;;;5019348;28;37116;-81
2024/01/23 14:13:33;;;;;;;49.97;7.63;;;8.60;99.90;;;;;;5011200;28;37312;-82
2024/01/23 14:15:59;;;;;;;40.70;7.20;;;8.60;99.90;;;;;;4998043;28;37901;-82
2024/01/23 14:18:25;;;;;;;41.50;7.20;;;8.60;99.90;;;;;;4999561;28;39060;-81